createdAt,value
2022-08-28T00:00:51.649Z,100.00
2022-08-28T00:03:21.462Z,100.00
2022-08-28T00:05:49.735Z,100.00
2022-08-28T00:08:18.930Z,100.00
2022-08-28T00:10:47.360Z,100.00
2022-08-28T00:13:20.461Z,100.00
2022-08-28T00:15:52.506Z,100.00
2022-08-28T00:18:22.805Z,100.00
2022-08-28T00:20:51.895Z,100.00
2022-08-28T00:23:21.163Z,100.00
2022-08-28T00:25:50.069Z,100.00
2022-08-28T00:28:23.383Z,100.00
2022-08-28T00:30:55.922Z,100.00
2022-08-28T00:33:29.783Z,100.00
2022-08-28T00:35:59.017Z,100.00
2022-08-28T00:38:28.643Z,100.00
2022-08-28T00:41:03.891Z,100.00
2022-08-28T00:43:39.983Z,100.00
2022-08-28T00:46:12.517Z,100.00
2022-08-28T00:48:43.253Z,100.00
2022-08-28T00:51:41.509Z,100.00
2022-08-28T00:54:10.545Z,100.00
2022-08-28T00:56:41.205Z,100.00
2022-08-28T00:59:15.377Z,100.00
2022-08-28T01:01:45.490Z,100.00
2022-08-28T01:04:18.097Z,100.00
2022-08-28T01:06:48.541Z,100.00
2022-08-28T01:09:20.909Z,100.00
2022-08-28T01:11:52.733Z,100.00
2022-08-28T01:14:23.823Z,100.00
2022-08-28T01:16:55.516Z,100.00
2022-08-28T01:19:31.445Z,100.00
2022-08-28T01:22:13.282Z,100.00
2022-08-28T01:24:45.634Z,100.00
2022-08-28T01:27:14.023Z,100.00
2022-08-28T01:29:42.424Z,100.00
2022-08-28T01:32:31.984Z,100.00
2022-08-28T01:35:02.100Z,100.00
2022-08-28T01:37:31.911Z,100.00
2022-08-28T01:40:02.350Z,100.00
2022-08-28T01:42:30.849Z,100.00
2022-08-28T01:44:59.160Z,100.00
2022-08-28T01:47:27.491Z,100.00
2022-08-28T01:49:55.716Z,100.00
2022-08-28T01:52:26.331Z,100.00
2022-08-28T01:54:54.948Z,100.00
2022-08-28T01:57:27.704Z,100.00
2022-08-28T01:59:56.414Z,100.00
2022-08-28T02:02:25.101Z,100.00
2022-08-28T02:04:53.945Z,100.00
2022-08-28T02:07:22.209Z,100.00
2022-08-28T02:09:50.562Z,100.00
2022-08-28T02:12:19.854Z,100.00
2022-08-28T02:14:49.825Z,100.00
2022-08-28T02:17:18.142Z,100.00
2022-08-28T02:19:46.509Z,100.00
2022-08-28T02:22:14.862Z,100.00
2022-08-28T02:24:43.235Z,100.00
2022-08-28T02:27:11.561Z,100.00
2022-08-28T02:29:39.904Z,100.00
2022-08-28T02:32:09.764Z,100.00
2022-08-28T02:34:39.131Z,100.00
2022-08-28T02:37:08.790Z,100.00
2022-08-28T02:39:37.133Z,100.00
2022-08-28T02:42:05.906Z,100.00
2022-08-28T02:44:35.339Z,100.00
2022-08-28T02:47:03.910Z,100.00
2022-08-28T02:49:36.090Z,100.00
2022-08-28T02:52:06.778Z,100.00
2022-08-28T02:54:35.894Z,100.00
2022-08-28T02:57:04.568Z,100.00
2022-08-28T02:59:32.976Z,100.00
2022-08-28T03:02:03.941Z,100.00
2022-08-28T03:04:34.017Z,100.00
2022-08-28T03:07:02.483Z,100.00
2022-08-28T03:09:31.375Z,100.00
2022-08-28T03:11:59.763Z,100.00
2022-08-28T03:14:28.775Z,100.00
2022-08-28T03:16:57.304Z,100.00
2022-08-28T03:19:25.630Z,100.00
2022-08-28T03:21:57.452Z,100.00
2022-08-28T03:24:26.059Z,100.00
2022-08-28T03:26:54.689Z,100.00
2022-08-28T03:29:23.064Z,100.00
2022-08-28T03:31:51.384Z,100.00
2022-08-28T03:34:19.784Z,100.00
2022-08-28T03:36:48.432Z,100.00
2022-08-28T03:39:18.216Z,100.00
2022-08-28T03:41:46.547Z,100.00
2022-08-28T03:44:15.723Z,100.00
2022-08-28T03:46:44.202Z,100.00
2022-08-28T03:49:13.438Z,100.00
2022-08-28T03:51:43.134Z,100.00
2022-08-28T03:54:11.673Z,100.00
2022-08-28T03:56:43.464Z,100.00
2022-08-28T03:59:11.803Z,100.00
2022-08-28T04:01:40.465Z,100.00
2022-08-28T04:04:09.458Z,100.00
2022-08-28T04:06:37.704Z,100.00
2022-08-28T04:09:06.438Z,100.00
2022-08-28T04:11:42.318Z,100.00
2022-08-28T04:14:11.154Z,100.00
2022-08-28T04:16:39.547Z,100.00
2022-08-28T04:19:08.005Z,100.00
2022-08-28T04:21:36.374Z,100.00
2022-08-28T04:24:09.368Z,100.00
2022-08-28T04:26:38.164Z,100.00
2022-08-28T04:29:08.254Z,100.00
2022-08-28T04:31:37.271Z,100.00
2022-08-28T04:34:08.644Z,100.00
2022-08-28T04:36:38.044Z,100.00
2022-08-28T04:39:08.685Z,100.00
2022-08-28T04:41:38.955Z,100.00
2022-08-28T04:44:09.538Z,100.00
2022-08-28T04:46:38.902Z,100.00
2022-08-28T04:49:07.200Z,100.00
2022-08-28T04:51:38.926Z,100.00
2022-08-28T04:54:11.501Z,100.00
2022-08-28T04:56:41.901Z,100.00
2022-08-28T04:59:11.840Z,100.00
2022-08-28T05:01:42.776Z,100.00
2022-08-28T05:04:13.012Z,100.00
2022-08-28T05:06:45.978Z,100.00
2022-08-28T05:09:19.182Z,100.00
2022-08-28T05:11:48.737Z,100.00
2022-08-28T05:14:20.096Z,100.00
2022-08-28T05:16:52.731Z,100.00
2022-08-28T05:19:22.934Z,100.00
2022-08-28T05:21:51.755Z,100.00
2022-08-28T05:24:21.215Z,100.00
2022-08-28T05:26:49.547Z,100.00
2022-08-28T05:29:19.406Z,100.00
2022-08-28T05:31:48.121Z,100.00
2022-08-28T05:34:17.543Z,100.00
2022-08-28T05:36:45.874Z,100.00
2022-08-28T05:39:15.019Z,100.00
2022-08-28T05:41:46.488Z,100.00
2022-08-28T05:44:18.769Z,100.00
2022-08-28T05:46:48.826Z,100.00
2022-08-28T05:49:19.396Z,100.00
2022-08-28T05:51:48.139Z,100.00
2022-08-28T05:54:17.994Z,100.00
2022-08-28T05:56:47.374Z,100.00
2022-08-28T05:59:16.728Z,100.00
2022-08-28T06:01:49.279Z,100.00
2022-08-28T06:04:22.545Z,100.00
2022-08-28T06:06:50.848Z,100.00
2022-08-28T06:09:28.137Z,100.00
2022-08-28T06:11:59.893Z,100.00
2022-08-28T06:14:29.674Z,100.00
2022-08-28T06:17:00.637Z,100.00
2022-08-28T06:19:31.914Z,100.00
2022-08-28T06:22:07.111Z,100.00
2022-08-28T06:24:35.993Z,100.00
2022-08-28T06:27:04.441Z,100.00
2022-08-28T06:29:32.789Z,100.00
2022-08-28T06:32:05.548Z,100.00
2022-08-28T06:34:33.959Z,100.00
2022-08-28T06:37:02.560Z,100.00
2022-08-28T06:39:30.910Z,100.00
2022-08-28T06:41:59.254Z,100.00
2022-08-28T06:44:27.896Z,100.00
2022-08-28T06:46:57.170Z,100.00
2022-08-28T06:49:27.110Z,100.00
2022-08-28T06:51:56.151Z,100.00
2022-08-28T06:54:24.673Z,100.00
2022-08-28T06:56:54.157Z,100.00
2022-08-28T06:59:22.620Z,100.00
2022-08-28T07:01:53.569Z,100.00
2022-08-28T07:04:22.058Z,100.00
2022-08-28T07:06:54.530Z,100.00
2022-08-28T07:09:24.823Z,100.00
2022-08-28T07:11:53.839Z,100.00
2022-08-28T07:14:22.345Z,100.00
2022-08-28T07:16:51.856Z,100.00
2022-08-28T07:19:20.340Z,100.00
2022-08-28T07:21:48.974Z,100.00
2022-08-28T07:24:19.690Z,100.00
2022-08-28T07:26:48.736Z,100.00
2022-08-28T07:29:17.287Z,100.00
2022-08-28T07:31:53.589Z,100.00
2022-08-28T07:34:27.068Z,100.00
2022-08-28T07:36:56.220Z,100.00
2022-08-28T07:39:25.962Z,100.00
2022-08-28T07:41:54.292Z,100.00
2022-08-28T07:44:40.315Z,100.00
2022-08-28T07:47:09.461Z,100.00
2022-08-28T07:49:38.307Z,100.00
2022-08-28T07:52:08.746Z,100.00
2022-08-28T07:54:40.551Z,100.00
2022-08-28T07:57:10.798Z,100.00
2022-08-28T07:59:40.897Z,100.00
2022-08-28T08:02:13.122Z,100.00
2022-08-28T08:04:41.573Z,100.00
2022-08-28T08:07:10.064Z,100.00
2022-08-28T08:09:43.126Z,100.00
2022-08-28T08:12:13.562Z,100.00
2022-08-28T08:14:43.837Z,100.00
2022-08-28T08:17:13.115Z,100.00
2022-08-28T08:19:41.774Z,100.00
2022-08-28T08:22:10.099Z,100.00
2022-08-28T08:24:39.781Z,100.00
2022-08-28T08:27:08.092Z,100.00
2022-08-28T08:29:38.672Z,100.00
2022-08-28T08:32:10.850Z,100.00
2022-08-28T08:34:41.091Z,100.00
2022-08-28T08:37:10.416Z,100.00
2022-08-28T08:39:41.620Z,100.00
2022-08-28T08:42:22.080Z,100.00
2022-08-28T08:44:52.978Z,100.00
2022-08-28T08:47:26.947Z,100.00
2022-08-28T08:49:59.506Z,100.00
2022-08-28T08:52:47.453Z,100.00
2022-08-28T08:55:28.128Z,100.00
2022-08-28T08:58:06.604Z,100.00
2022-08-28T09:00:53.769Z,100.00
2022-08-28T09:03:25.466Z,100.00
2022-08-28T09:05:59.548Z,100.00
2022-08-28T09:08:36.432Z,100.00
2022-08-28T09:11:21.447Z,100.00
2022-08-28T09:13:59.258Z,100.00
2022-08-28T09:16:33.290Z,100.00
2022-08-28T09:19:03.490Z,100.00
2022-08-28T09:21:36.580Z,100.00
2022-08-28T09:24:11.905Z,100.00
2022-08-28T09:26:41.720Z,100.00
2022-08-28T09:29:18.782Z,100.00
2022-08-28T09:31:47.197Z,100.00
2022-08-28T09:34:24.687Z,100.00
2022-08-28T09:36:54.143Z,100.00
2022-08-28T09:39:25.483Z,100.00
2022-08-28T09:42:19.917Z,100.00
2022-08-28T09:45:02.632Z,100.00
2022-08-28T09:47:49.128Z,100.00
2022-08-28T09:50:34.637Z,100.00
2022-08-28T09:53:21.855Z,100.00
2022-08-28T09:56:17.895Z,100.00
2022-08-28T09:58:50.994Z,100.00
2022-08-28T10:01:40.688Z,100.00
2022-08-28T10:04:31.702Z,96.76
2022-08-28T10:07:09.844Z,92.95
2022-08-28T10:09:50.517Z,93.68
2022-08-28T10:12:36.385Z,94.56
2022-08-28T10:15:17.188Z,92.84
2022-08-28T10:18:06.804Z,91.46
2022-08-28T10:20:47.989Z,90.14
2022-08-28T10:23:29.007Z,88.17
2022-08-28T10:26:12.368Z,86.46
2022-08-28T10:28:56.401Z,90.57
2022-08-28T10:31:36.165Z,88.76
2022-08-28T10:34:25.286Z,84.81
2022-08-28T10:37:04.247Z,83.18
2022-08-28T10:39:50.462Z,83.68
2022-08-28T10:42:35.901Z,81.30
2022-08-28T10:45:11.622Z,80.95
2022-08-28T10:47:46.837Z,83.23
2022-08-28T10:50:23.889Z,79.46
2022-08-28T10:52:59.200Z,80.98
2022-08-28T10:55:36.522Z,78.46
2022-08-28T10:58:24.381Z,76.96
2022-08-28T11:00:56.673Z,75.37
2022-08-28T11:03:34.737Z,79.53
2022-08-28T11:06:09.979Z,81.41
2022-08-28T11:08:40.661Z,73.96
2022-08-28T11:11:15.853Z,70.86
2022-08-28T11:13:59.658Z,78.23
2022-08-28T11:16:42.856Z,74.35
2022-08-28T11:19:52.301Z,69.25
2022-08-28T11:22:25.756Z,67.33
2022-08-28T11:25:08.967Z,68.13
2022-08-28T11:27:39.560Z,66.69
2022-08-28T11:30:33.890Z,67.53
2022-08-28T11:33:20.713Z,66.87
2022-08-28T11:35:52.790Z,68.59
2022-08-28T11:39:20.349Z,70.31
2022-08-28T11:42:36.110Z,65.83
2022-08-28T11:45:05.484Z,61.39
2022-08-28T11:47:57.699Z,63.21
2022-08-28T11:50:33.497Z,60.83
2022-08-28T11:53:44.708Z,63.05
2022-08-28T11:56:48.831Z,62.54
2022-08-28T12:00:01.883Z,59.39
2022-08-28T12:03:14.933Z,65.42
2022-08-28T12:05:54.986Z,62.35
2022-08-28T12:09:11.617Z,66.36
2022-08-28T12:11:53.320Z,67.27
2022-08-28T12:15:07.832Z,69.40
2022-08-28T12:17:53.159Z,69.84
2022-08-28T12:20:45.477Z,68.41
2022-08-28T12:23:44.421Z,65.48
2022-08-28T12:26:25.466Z,65.88
2022-08-28T12:28:58.308Z,62.88
2022-08-28T12:32:14.907Z,61.11
2022-08-28T12:34:50.956Z,63.57
2022-08-28T12:37:51.665Z,62.30
2022-08-28T12:40:25.326Z,61.49
2022-08-28T12:42:58.629Z,61.29
2022-08-28T12:45:32.330Z,59.71
2022-08-28T12:48:09.314Z,62.42
2022-08-28T12:50:40.116Z,63.01
2022-08-28T12:53:16.216Z,59.31
2022-08-28T12:55:47.038Z,58.43
2022-08-28T12:58:31.178Z,62.11
2022-08-28T13:01:03.533Z,56.10
2022-08-28T13:03:32.292Z,54.53
2022-08-28T13:06:07.175Z,57.47
2022-08-28T13:08:37.673Z,57.58
2022-08-28T13:11:06.678Z,56.97
2022-08-28T13:13:40.921Z,56.09
2022-08-28T13:16:10.742Z,57.93
2022-08-28T13:18:53.690Z,56.50
2022-08-28T13:21:36.104Z,56.34
2022-08-28T13:24:59.700Z,57.07
2022-08-28T13:27:29.074Z,58.51
2022-08-28T13:30:08.111Z,56.93
2022-08-28T13:32:40.411Z,55.56
2022-08-28T13:35:33.183Z,57.07
2022-08-28T13:38:04.513Z,53.50
2022-08-28T13:40:57.508Z,53.17
2022-08-28T13:43:29.355Z,56.28
2022-08-28T13:45:59.285Z,55.71
2022-08-28T13:48:29.143Z,52.63
2022-08-28T13:51:05.017Z,51.35
2022-08-28T13:53:35.664Z,51.76
2022-08-28T13:56:05.090Z,52.15
2022-08-28T13:58:33.447Z,54.62
2022-08-28T14:01:03.979Z,52.68
2022-08-28T14:03:35.753Z,53.58
2022-08-28T14:06:07.079Z,52.41
2022-08-28T14:08:36.212Z,53.34
2022-08-28T14:11:04.704Z,52.24
2022-08-28T14:13:33.095Z,52.01
2022-08-28T14:16:06.691Z,49.89
2022-08-28T14:18:35.573Z,51.18
2022-08-28T14:21:07.199Z,50.01
2022-08-28T14:23:35.635Z,47.90
2022-08-28T14:26:06.748Z,49.82
2022-08-28T14:28:35.223Z,50.33
2022-08-28T14:31:12.254Z,50.20
2022-08-28T14:33:45.204Z,53.03
2022-08-28T14:36:18.089Z,50.42
2022-08-28T14:38:46.563Z,49.35
2022-08-28T14:41:16.752Z,50.50
2022-08-28T14:43:45.852Z,49.00
2022-08-28T14:46:19.450Z,49.60
2022-08-28T14:48:48.661Z,50.16
2022-08-28T14:51:17.514Z,49.45
2022-08-28T14:53:46.313Z,49.90
2022-08-28T14:56:14.737Z,48.73
2022-08-28T14:58:43.143Z,49.46
2022-08-28T15:01:11.671Z,50.30
2022-08-28T15:03:41.476Z,48.81
2022-08-28T15:06:11.528Z,50.17
2022-08-28T15:08:41.652Z,46.80
2022-08-28T15:11:18.309Z,48.33
2022-08-28T15:13:49.978Z,47.46
2022-08-28T15:16:21.640Z,48.34
2022-08-28T15:18:51.352Z,50.05
2022-08-28T15:21:22.760Z,51.47
2022-08-28T15:23:51.565Z,50.37
2022-08-28T15:26:21.799Z,50.75
2022-08-28T15:28:51.171Z,51.23
2022-08-28T15:31:20.063Z,49.63
2022-08-28T15:33:48.376Z,49.39
2022-08-28T15:36:18.539Z,51.14
2022-08-28T15:39:04.278Z,48.94
2022-08-28T15:41:32.731Z,50.62
2022-08-28T15:44:03.040Z,49.02
2022-08-28T15:46:35.291Z,52.64
2022-08-28T15:49:07.748Z,51.44
2022-08-28T15:51:38.952Z,51.86
2022-08-28T15:54:07.805Z,50.42
2022-08-28T15:56:36.187Z,49.25
2022-08-28T15:59:04.661Z,48.68
2022-08-28T16:01:33.032Z,50.10
2022-08-28T16:04:02.408Z,50.70
2022-08-28T16:06:30.865Z,51.07
2022-08-28T16:09:00.644Z,49.92
2022-08-28T16:11:32.279Z,50.43
2022-08-28T16:14:04.485Z,50.97
2022-08-28T16:16:33.432Z,52.41
2022-08-28T16:19:02.675Z,54.13
2022-08-28T16:21:31.609Z,53.83
2022-08-28T16:24:01.443Z,52.96
2022-08-28T16:26:30.422Z,52.80
2022-08-28T16:28:58.896Z,52.17
2022-08-28T16:31:27.248Z,52.12
2022-08-28T16:33:56.901Z,52.02
2022-08-28T16:36:26.137Z,52.25
2022-08-28T16:39:00.573Z,51.26
2022-08-28T16:41:33.781Z,52.79
2022-08-28T16:44:02.076Z,52.39
2022-08-28T16:46:30.831Z,54.52
2022-08-28T16:48:59.579Z,53.71
2022-08-28T16:51:29.671Z,54.79
2022-08-28T16:53:58.957Z,55.64
2022-08-28T16:56:27.318Z,55.32
2022-08-28T16:58:57.746Z,54.92
2022-08-28T17:01:26.842Z,55.09
2022-08-28T17:03:55.586Z,54.99
2022-08-28T17:06:29.388Z,54.74
2022-08-28T17:08:59.135Z,54.58
2022-08-28T17:11:28.591Z,55.34
2022-08-28T17:13:58.566Z,55.00
2022-08-28T17:16:31.303Z,56.28
2022-08-28T17:19:00.444Z,55.49
2022-08-28T17:21:46.462Z,54.84
2022-08-28T17:24:15.180Z,54.53
2022-08-28T17:26:44.403Z,55.21
2022-08-28T17:29:14.223Z,56.58
2022-08-28T17:31:42.729Z,57.69
2022-08-28T17:34:11.940Z,57.76
2022-08-28T17:36:42.480Z,58.90
2022-08-28T17:39:13.902Z,58.46
2022-08-28T17:41:43.879Z,59.04
2022-08-28T17:44:13.848Z,60.26
2022-08-28T17:46:42.259Z,61.19
2022-08-28T17:49:10.770Z,61.82
2022-08-28T17:51:42.643Z,63.15
2022-08-28T17:54:13.954Z,64.34
2022-08-28T17:56:42.917Z,63.92
2022-08-28T17:59:13.587Z,64.47
2022-08-28T18:01:43.325Z,65.14
2022-08-28T18:04:12.077Z,64.45
2022-08-28T18:06:40.684Z,65.83
2022-08-28T18:09:10.552Z,66.52
2022-08-28T18:11:39.144Z,66.09
2022-08-28T18:14:08.340Z,67.06
2022-08-28T18:16:39.620Z,66.94
2022-08-28T18:19:11.363Z,66.73
2022-08-28T18:21:40.215Z,68.96
2022-08-28T18:24:10.229Z,69.03
2022-08-28T18:26:38.527Z,68.17
2022-08-28T18:29:07.064Z,69.60
2022-08-28T18:31:35.504Z,69.61
2022-08-28T18:34:05.502Z,70.53
2022-08-28T18:36:34.093Z,70.04
2022-08-28T18:39:02.551Z,70.29
2022-08-28T18:41:43.096Z,70.38
2022-08-28T18:44:14.231Z,71.41
2022-08-28T18:46:43.860Z,70.89
2022-08-28T18:49:14.419Z,71.80
2022-08-28T18:51:44.666Z,72.90
2022-08-28T18:54:16.495Z,72.31
2022-08-28T18:56:45.997Z,72.85
2022-08-28T18:59:16.531Z,73.72
2022-08-28T19:01:45.050Z,73.23
2022-08-28T19:04:14.865Z,74.17
2022-08-28T19:06:44.464Z,73.83
2022-08-28T19:09:20.212Z,75.67
2022-08-28T19:12:21.113Z,75.76
2022-08-28T19:14:53.541Z,77.02
2022-08-28T19:17:24.423Z,76.35
2022-08-28T19:20:00.442Z,77.07
2022-08-28T19:22:30.045Z,76.64
2022-08-28T19:24:58.624Z,78.71
2022-08-28T19:27:30.212Z,79.01
2022-08-28T19:34:27.866Z,82.20
2022-08-28T19:37:32.419Z,85.04
2022-08-28T19:49:08.480Z,84.36
2022-08-28T19:51:50.899Z,84.53
2022-08-28T19:55:49.915Z,85.83
2022-08-28T19:58:24.518Z,83.63
2022-08-28T20:00:54.404Z,85.27
2022-08-28T20:03:52.201Z,83.20
2022-08-28T20:06:59.895Z,86.11
2022-08-28T20:09:37.904Z,88.01
2022-08-28T20:12:14.723Z,86.26
2022-08-28T20:15:08.985Z,84.76
2022-08-28T20:17:49.497Z,88.94
2022-08-28T20:20:20.151Z,88.94
2022-08-28T20:22:48.866Z,86.33
2022-08-28T20:25:23.027Z,88.06
2022-08-28T20:27:52.811Z,88.83
2022-08-28T20:30:21.291Z,87.41
2022-08-28T20:32:49.929Z,87.24
2022-08-28T20:35:24.513Z,87.25
2022-08-28T20:38:23.750Z,88.86
2022-08-28T20:40:55.442Z,89.36
2022-08-28T20:43:40.121Z,90.59
2022-08-28T20:50:46.571Z,92.50
2022-08-28T21:10:43.490Z,94.35
2022-08-28T21:17:18.605Z,95.75
2022-08-28T21:20:53.073Z,95.73
2022-08-28T21:24:03.752Z,96.83
2022-08-28T21:26:53.768Z,95.97
2022-08-28T21:30:11.713Z,96.12
2022-08-28T21:33:39.830Z,97.88
2022-08-28T21:36:10.786Z,95.11
2022-08-28T21:38:39.869Z,96.21
2022-08-28T21:41:13.951Z,100.00
2022-08-28T21:43:44.978Z,96.81
2022-08-28T21:46:17.159Z,97.29
2022-08-28T21:48:50.343Z,96.59
2022-08-28T21:51:20.713Z,97.36
2022-08-28T21:53:51.004Z,98.41
2022-08-28T21:56:23.924Z,97.45
2022-08-28T21:58:54.141Z,100.00
2022-08-28T22:01:26.531Z,99.14
2022-08-28T22:03:57.167Z,98.35
2022-08-28T22:06:27.745Z,97.21
2022-08-28T22:08:57.129Z,95.87
2022-08-28T22:11:26.911Z,96.33
2022-08-28T22:13:56.889Z,96.67
2022-08-28T22:16:26.781Z,96.29
2022-08-28T22:18:56.907Z,97.00
2022-08-28T22:21:45.793Z,96.87
2022-08-28T22:24:14.953Z,96.82
2022-08-28T22:26:45.295Z,98.12
2022-08-28T22:29:14.192Z,98.58
2022-08-28T22:31:45.932Z,99.78
2022-08-28T22:34:17.753Z,98.00
2022-08-28T22:36:46.582Z,99.18
2022-08-28T22:39:15.212Z,100.00
2022-08-28T22:41:44.087Z,99.10
2022-08-28T22:44:12.476Z,100.00
2022-08-28T22:46:41.544Z,100.00
2022-08-28T22:49:10.300Z,100.00
2022-08-28T22:51:40.359Z,100.00
2022-08-28T22:54:09.167Z,100.00
2022-08-28T22:56:37.929Z,100.00
2022-08-28T22:59:06.493Z,100.00
2022-08-28T23:01:35.899Z,100.00
2022-08-28T23:04:05.264Z,100.00
2022-08-28T23:06:33.945Z,100.00
2022-08-28T23:09:03.838Z,100.00
2022-08-28T23:11:32.225Z,100.00
2022-08-28T23:14:01.230Z,100.00
2022-08-28T23:16:30.230Z,100.00
2022-08-28T23:19:14.139Z,100.00
2022-08-28T23:21:44.487Z,100.00
2022-08-28T23:24:16.472Z,100.00
2022-08-28T23:26:46.997Z,100.00
2022-08-28T23:29:15.548Z,100.00
2022-08-28T23:31:44.399Z,100.00
2022-08-28T23:34:15.242Z,100.00
2022-08-28T23:36:44.487Z,100.00
2022-08-28T23:39:14.897Z,100.00
2022-08-28T23:41:43.668Z,100.00
2022-08-28T23:44:12.408Z,100.00
2022-08-28T23:46:42.365Z,100.00
2022-08-28T23:49:11.901Z,100.00
2022-08-28T23:51:42.498Z,100.00
2022-08-28T23:54:12.297Z,100.00
2022-08-28T23:56:42.521Z,100.00
2022-08-28T23:59:12.233Z,100.00
